<?xml version='1.0' encoding='UTF-8'?><gpx version="1.1" creator="JPX - https://github.com/jenetics/jpx" xmlns="http://www.topografix.com/GPX/1/1"><trk><trkseg><trkpt lat="45.675795" lon="8.191465"><ele>576.0</ele><time>2026-05-02T14:43:51.254Z</time></trkpt><trkpt lat="45.6757333" lon="8.1914883"><ele>576.0</ele><time>2026-05-02T14:45:46.255Z</time></trkpt><trkpt lat="45.675635" lon="8.1915067"><ele>576.0</ele><time>2026-05-02T14:45:51.257Z</time></trkpt><trkpt lat="45.6756067" lon="8.1916017"><ele>576.0</ele><time>2026-05-02T14:45:54.254Z</time></trkpt><trkpt lat="45.6755333" lon="8.1916467"><ele>576.0</ele><time>2026-05-02T14:45:57.257Z</time></trkpt><trkpt lat="45.67547" lon="8.1915833"><ele>576.0</ele><time>2026-05-02T14:45:59.258Z</time></trkpt><trkpt lat="45.6753617" lon="8.1915617"><ele>577.0</ele><time>2026-05-02T14:46:01.259Z</time></trkpt><trkpt lat="45.6753" lon="8.19158"><ele>578.0</ele><time>2026-05-02T14:46:02.256Z</time></trkpt><trkpt lat="45.6752317" lon="8.1916067"><ele>579.0</ele><time>2026-05-02T14:46:04.256Z</time></trkpt><trkpt lat="45.67516" lon="8.1915533"><ele>580.0</ele><time>2026-05-02T14:46:08.257Z</time></trkpt><trkpt lat="45.6751533" lon="8.191435"><ele>581.0</ele><time>2026-05-02T14:46:10.256Z</time></trkpt><trkpt lat="45.6751717" lon="8.1912967"><ele>582.0</ele><time>2026-05-02T14:46:12.257Z</time></trkpt><trkpt lat="45.675175" lon="8.1911583"><ele>583.4</ele><time>2026-05-02T14:46:14.254Z</time></trkpt><trkpt lat="45.675175" lon="8.1910183"><ele>584.8000000000001</ele><time>2026-05-02T14:46:16.256Z</time></trkpt><trkpt lat="45.6751817" lon="8.1909"><ele>586.2</ele><time>2026-05-02T14:46:18.256Z</time></trkpt><trkpt lat="45.6751483" lon="8.19078"><ele>587.6</ele><time>2026-05-02T14:46:21.257Z</time></trkpt><trkpt lat="45.6751217" lon="8.19067"><ele>589.0</ele><time>2026-05-02T14:46:23.258Z</time></trkpt><trkpt lat="45.6750867" lon="8.1905117"><ele>589.0</ele><time>2026-05-02T14:46:25.255Z</time></trkpt><trkpt lat="45.6750883" lon="8.1903567"><ele>589.0</ele><time>2026-05-02T14:46:27.258Z</time></trkpt><trkpt lat="45.6751217" lon="8.1901983"><ele>589.0</ele><time>2026-05-02T14:46:29.257Z</time></trkpt><trkpt lat="45.6751683" lon="8.1900667"><ele>589.0</ele><time>2026-05-02T14:46:31.258Z</time></trkpt><trkpt lat="45.6752333" lon="8.18992"><ele>589.0</ele><time>2026-05-02T14:46:33.255Z</time></trkpt><trkpt lat="45.6752967" lon="8.1897733"><ele>587.1666666666667</ele><time>2026-05-02T14:46:35.255Z</time></trkpt><trkpt lat="45.6753733" lon="8.1896767"><ele>585.3333333333334</ele><time>2026-05-02T14:46:37.255Z</time></trkpt><trkpt lat="45.6754183" lon="8.1896133"><ele>583.5</ele><time>2026-05-02T14:46:38.256Z</time></trkpt><trkpt lat="45.6754633" lon="8.18949"><ele>581.6666666666666</ele><time>2026-05-02T14:46:41.257Z</time></trkpt><trkpt lat="45.6755417" lon="8.1894333"><ele>579.8333333333333</ele><time>2026-05-02T14:46:42.257Z</time></trkpt><trkpt lat="45.67562" lon="8.189385"><ele>578.0</ele><time>2026-05-02T14:46:43.257Z</time></trkpt><trkpt lat="45.6756983" lon="8.1893333"><ele>578.0</ele><time>2026-05-02T14:46:44.256Z</time></trkpt><trkpt lat="45.6757667" lon="8.18928"><ele>578.0</ele><time>2026-05-02T14:46:45.258Z</time></trkpt><trkpt lat="45.6758367" lon="8.189255"><ele>578.0</ele><time>2026-05-02T14:46:46.256Z</time></trkpt><trkpt lat="45.6759" lon="8.1892467"><ele>578.0</ele><time>2026-05-02T14:46:47.256Z</time></trkpt><trkpt lat="45.676015" lon="8.1892267"><ele>578.0</ele><time>2026-05-02T14:46:49.255Z</time></trkpt><trkpt lat="45.676135" lon="8.1892017"><ele>576.0</ele><time>2026-05-02T14:46:51.257Z</time></trkpt><trkpt lat="45.6762567" lon="8.1891967"><ele>574.0</ele><time>2026-05-02T14:46:53.255Z</time></trkpt><trkpt lat="45.676365" lon="8.18924"><ele>572.0</ele><time>2026-05-02T14:46:55.258Z</time></trkpt><trkpt lat="45.6764233" lon="8.1892783"><ele>570.0</ele><time>2026-05-02T14:46:56.255Z</time></trkpt><trkpt lat="45.6765417" lon="8.1893133"><ele>568.0</ele><time>2026-05-02T14:46:58.256Z</time></trkpt><trkpt lat="45.6765967" lon="8.18924"><ele>568.0</ele><time>2026-05-02T14:47:02.254Z</time></trkpt><trkpt lat="45.676675" lon="8.1891983"><ele>568.0</ele><time>2026-05-02T14:47:04.254Z</time></trkpt><trkpt lat="45.676755" lon="8.1891783"><ele>568.0</ele><time>2026-05-02T14:47:06.256Z</time></trkpt><trkpt lat="45.6768417" lon="8.18913"><ele>568.0</ele><time>2026-05-02T14:47:08.256Z</time></trkpt><trkpt lat="45.6769367" lon="8.18912"><ele>568.0</ele><time>2026-05-02T14:47:09.255Z</time></trkpt><trkpt lat="45.67701" lon="8.1890933"><ele>568.0</ele><time>2026-05-02T14:47:10.256Z</time></trkpt><trkpt lat="45.677085" lon="8.18906"><ele>565.0</ele><time>2026-05-02T14:47:11.253Z</time></trkpt><trkpt lat="45.6771533" lon="8.1890133"><ele>562.0</ele><time>2026-05-02T14:47:12.254Z</time></trkpt><trkpt lat="45.6772233" lon="8.18897"><ele>559.0</ele><time>2026-05-02T14:47:13.255Z</time></trkpt><trkpt lat="45.67729" lon="8.188925"><ele>556.0</ele><time>2026-05-02T14:47:14.255Z</time></trkpt><trkpt lat="45.6773683" lon="8.188915"><ele>553.0</ele><time>2026-05-02T14:47:15.256Z</time></trkpt><trkpt lat="45.6774417" lon="8.1888717"><ele>550.0</ele><time>2026-05-02T14:47:18.259Z</time></trkpt><trkpt lat="45.6775433" lon="8.18881"><ele>549.5</ele><time>2026-05-02T14:47:19.257Z</time></trkpt><trkpt lat="45.6776217" lon="8.1888183"><ele>549.0</ele><time>2026-05-02T14:47:21.258Z</time></trkpt><trkpt lat="45.677685" lon="8.18883"><ele>548.5</ele><time>2026-05-02T14:47:24.255Z</time></trkpt><trkpt lat="45.677745" lon="8.1887783"><ele>548.0</ele><time>2026-05-02T14:47:27.258Z</time></trkpt><trkpt lat="45.6778033" lon="8.1887133"><ele>547.5</ele><time>2026-05-02T14:47:30.256Z</time></trkpt><trkpt lat="45.67789" lon="8.1886983"><ele>547.0</ele><time>2026-05-02T14:47:34.254Z</time></trkpt><trkpt lat="45.677985" lon="8.1887"><ele>543.1666666666667</ele><time>2026-05-02T14:47:36.257Z</time></trkpt><trkpt lat="45.6780883" lon="8.188725"><ele>539.3333333333334</ele><time>2026-05-02T14:47:38.254Z</time></trkpt><trkpt lat="45.6781567" lon="8.1887533"><ele>535.5</ele><time>2026-05-02T14:47:40.255Z</time></trkpt><trkpt lat="45.6782233" lon="8.188795"><ele>531.6666666666666</ele><time>2026-05-02T14:47:42.255Z</time></trkpt><trkpt lat="45.6782883" lon="8.1888183"><ele>527.8333333333333</ele><time>2026-05-02T14:47:44.258Z</time></trkpt><trkpt lat="45.6783467" lon="8.1888917"><ele>524.0</ele><time>2026-05-02T14:47:47.257Z</time></trkpt><trkpt lat="45.6783217" lon="8.1889933"><ele>524.0</ele><time>2026-05-02T14:47:49.257Z</time></trkpt><trkpt lat="45.6782767" lon="8.1890717"><ele>524.0</ele><time>2026-05-02T14:47:51.258Z</time></trkpt><trkpt lat="45.6782883" lon="8.1891867"><ele>524.0</ele><time>2026-05-02T14:47:54.256Z</time></trkpt><trkpt lat="45.6783083" lon="8.1892867"><ele>524.0</ele><time>2026-05-02T14:47:57.259Z</time></trkpt><trkpt lat="45.6784" lon="8.18931"><ele>524.0</ele><time>2026-05-02T14:48:00.258Z</time></trkpt><trkpt lat="45.6784783" lon="8.18928"><ele>524.0</ele><time>2026-05-02T14:48:03.258Z</time></trkpt><trkpt lat="45.67856" lon="8.18928"><ele>517.0</ele><time>2026-05-02T14:48:06.258Z</time></trkpt><trkpt lat="45.6786517" lon="8.18928"><ele>510.0</ele><time>2026-05-02T14:48:08.258Z</time></trkpt><trkpt lat="45.67877" lon="8.18927"><ele>503.0</ele><time>2026-05-02T14:48:10.258Z</time></trkpt><trkpt lat="45.67887" lon="8.1892283"><ele>496.0</ele><time>2026-05-02T14:48:12.255Z</time></trkpt><trkpt lat="45.6789567" lon="8.1891883"><ele>489.0</ele><time>2026-05-02T14:48:14.256Z</time></trkpt><trkpt lat="45.6790433" lon="8.18915"><ele>489.0</ele><time>2026-05-02T14:48:16.255Z</time></trkpt><trkpt lat="45.6791183" lon="8.1891"><ele>489.00000000000006</ele><time>2026-05-02T14:48:18.256Z</time></trkpt><trkpt lat="45.679185" lon="8.1890733"><ele>489.0</ele><time>2026-05-02T14:48:20.256Z</time></trkpt><trkpt lat="45.6792517" lon="8.1890717"><ele>489.0</ele><time>2026-05-02T14:48:22.255Z</time></trkpt><trkpt lat="45.6793183" lon="8.189075"><ele>489.00000000000006</ele><time>2026-05-02T14:48:25.255Z</time></trkpt><trkpt lat="45.6793733" lon="8.18902"><ele>489.0</ele><time>2026-05-02T14:48:29.26Z</time></trkpt><trkpt lat="45.6794517" lon="8.18905"><ele>489.0</ele><time>2026-05-02T14:48:36.257Z</time></trkpt><trkpt lat="45.6795133" lon="8.189025"><ele>488.1666666666667</ele><time>2026-05-02T14:48:39.256Z</time></trkpt><trkpt lat="45.6795017" lon="8.1889133"><ele>487.33333333333337</ele><time>2026-05-02T14:48:43.256Z</time></trkpt><trkpt lat="45.67945" lon="8.188825"><ele>486.5</ele><time>2026-05-02T14:48:47.254Z</time></trkpt><trkpt lat="45.6794817" lon="8.188715"><ele>485.6666666666667</ele><time>2026-05-02T14:49:15.262Z</time></trkpt><trkpt lat="45.6793867" lon="8.188715"><ele>484.83333333333337</ele><time>2026-05-02T14:49:23.255Z</time></trkpt><trkpt lat="45.6793167" lon="8.1887183"><ele>484.0</ele><time>2026-05-02T14:49:26.256Z</time></trkpt><trkpt lat="45.679235" lon="8.18872"><ele>484.83333333333337</ele><time>2026-05-02T14:49:29.256Z</time></trkpt><trkpt lat="45.6791517" lon="8.188755"><ele>485.6666666666667</ele><time>2026-05-02T14:49:31.256Z</time></trkpt><trkpt lat="45.679075" lon="8.18881"><ele>486.5</ele><time>2026-05-02T14:49:33.258Z</time></trkpt><trkpt lat="45.678995" lon="8.1888867"><ele>487.33333333333337</ele><time>2026-05-02T14:49:35.257Z</time></trkpt><trkpt lat="45.6789283" lon="8.1889683"><ele>488.1666666666667</ele><time>2026-05-02T14:49:39.257Z</time></trkpt><trkpt lat="45.6788817" lon="8.189055"><ele>489.0</ele><time>2026-05-02T14:49:42.256Z</time></trkpt><trkpt lat="45.6788233" lon="8.1890967"><ele>489.0</ele><time>2026-05-02T14:49:44.256Z</time></trkpt><trkpt lat="45.6787267" lon="8.189095"><ele>489.0</ele><time>2026-05-02T14:49:47.257Z</time></trkpt><trkpt lat="45.6786467" lon="8.1890733"><ele>489.0</ele><time>2026-05-02T14:49:49.257Z</time></trkpt><trkpt lat="45.6785567" lon="8.18905"><ele>489.0</ele><time>2026-05-02T14:49:51.257Z</time></trkpt><trkpt lat="45.6785117" lon="8.1889617"><ele>489.0</ele><time>2026-05-02T14:49:53.253Z</time></trkpt><trkpt lat="45.6784917" lon="8.1888467"><ele>489.0</ele><time>2026-05-02T14:49:56.258Z</time></trkpt><trkpt lat="45.67849" lon="8.1887517"><ele>494.8333333333333</ele><time>2026-05-02T14:49:59.257Z</time></trkpt><trkpt lat="45.6784317" lon="8.1886783"><ele>500.66666666666663</ele><time>2026-05-02T14:50:02.255Z</time></trkpt><trkpt lat="45.6783367" lon="8.18869"><ele>506.5</ele><time>2026-05-02T14:50:05.256Z</time></trkpt><trkpt lat="45.67827" lon="8.18868"><ele>512.3333333333333</ele><time>2026-05-02T14:50:06.261Z</time></trkpt><trkpt lat="45.678195" lon="8.1886633"><ele>518.1666666666666</ele><time>2026-05-02T14:50:07.259Z</time></trkpt><trkpt lat="45.67807" lon="8.1886383"><ele>524.0</ele><time>2026-05-02T14:50:09.257Z</time></trkpt><trkpt lat="45.67797" lon="8.1886317"><ele>524.0</ele><time>2026-05-02T14:50:11.256Z</time></trkpt><trkpt lat="45.6779017" lon="8.1886517"><ele>524.0</ele><time>2026-05-02T14:50:13.257Z</time></trkpt><trkpt lat="45.6778167" lon="8.1886433"><ele>524.0</ele><time>2026-05-02T14:50:18.259Z</time></trkpt><trkpt lat="45.6777417" lon="8.1886717"><ele>524.0</ele><time>2026-05-02T14:50:20.257Z</time></trkpt><trkpt lat="45.6776483" lon="8.188675"><ele>524.0</ele><time>2026-05-02T14:50:22.258Z</time></trkpt><trkpt lat="45.6775183" lon="8.18867"><ele>528.6</ele><time>2026-05-02T14:50:24.256Z</time></trkpt><trkpt lat="45.6774033" lon="8.1886933"><ele>533.2</ele><time>2026-05-02T14:50:25.256Z</time></trkpt><trkpt lat="45.6773247" lon="8.1887204"><ele>537.8000000000001</ele><time>2026-05-02T14:50:26.256Z</time></trkpt><trkpt lat="45.6772464" lon="8.1887925"><ele>542.4</ele><time>2026-05-02T14:50:27.265Z</time></trkpt><trkpt lat="45.6771768" lon="8.1888644"><ele>547.0</ele><time>2026-05-02T14:50:28.257Z</time></trkpt><trkpt lat="45.677116" lon="8.1889321"><ele>547.6</ele><time>2026-05-02T14:50:29.255Z</time></trkpt><trkpt lat="45.6770273" lon="8.1890289"><ele>548.2</ele><time>2026-05-02T14:50:31.26Z</time></trkpt><trkpt lat="45.6769297" lon="8.1890442"><ele>548.8</ele><time>2026-05-02T14:50:33.264Z</time></trkpt><trkpt lat="45.6768311" lon="8.1890128"><ele>549.4</ele><time>2026-05-02T14:50:35.256Z</time></trkpt><trkpt lat="45.6767324" lon="8.1890371"><ele>550.0</ele><time>2026-05-02T14:50:37.258Z</time></trkpt><trkpt lat="45.6766214" lon="8.18912"><ele>553.6</ele><time>2026-05-02T14:50:39.259Z</time></trkpt><trkpt lat="45.6765287" lon="8.1891915"><ele>557.2</ele><time>2026-05-02T14:50:41.256Z</time></trkpt><trkpt lat="45.6764532" lon="8.1891744"><ele>560.8</ele><time>2026-05-02T14:50:43.256Z</time></trkpt><trkpt lat="45.6763873" lon="8.1891529"><ele>564.4</ele><time>2026-05-02T14:50:45.255Z</time></trkpt><trkpt lat="45.6763036" lon="8.1891673"><ele>568.0</ele><time>2026-05-02T14:50:47.255Z</time></trkpt><trkpt lat="45.6761712" lon="8.1891841"><ele>570.0</ele><time>2026-05-02T14:50:49.259Z</time></trkpt><trkpt lat="45.6760926" lon="8.1891846"><ele>572.0</ele><time>2026-05-02T14:50:50.257Z</time></trkpt><trkpt lat="45.6759777" lon="8.1891823"><ele>574.0</ele><time>2026-05-02T14:50:52.256Z</time></trkpt><trkpt lat="45.6758794" lon="8.1892118"><ele>576.0</ele><time>2026-05-02T14:50:54.258Z</time></trkpt><trkpt lat="45.6757801" lon="8.1892822"><ele>578.0</ele><time>2026-05-02T14:50:56.257Z</time></trkpt><trkpt lat="45.6756855" lon="8.1893048"><ele>578.0</ele><time>2026-05-02T14:50:58.257Z</time></trkpt><trkpt lat="45.6755967" lon="8.18929"><ele>578.0</ele><time>2026-05-02T14:51:00.257Z</time></trkpt><trkpt lat="45.6755133" lon="8.189315"><ele>578.0</ele><time>2026-05-02T14:51:02.255Z</time></trkpt><trkpt lat="45.67541" lon="8.1894033"><ele>578.0</ele><time>2026-05-02T14:51:04.256Z</time></trkpt><trkpt lat="45.6753483" lon="8.1894283"><ele>578.0</ele><time>2026-05-02T14:51:05.256Z</time></trkpt><trkpt lat="45.675245" lon="8.1894133"><ele>580.6</ele><time>2026-05-02T14:51:07.253Z</time></trkpt><trkpt lat="45.6751833" lon="8.1893017"><ele>583.1999999999999</ele><time>2026-05-02T14:51:09.258Z</time></trkpt><trkpt lat="45.6751233" lon="8.1891817"><ele>585.8</ele><time>2026-05-02T14:51:11.257Z</time></trkpt><trkpt lat="45.6750667" lon="8.1890717"><ele>588.4</ele><time>2026-05-02T14:51:13.258Z</time></trkpt><trkpt lat="45.6750833" lon="8.1889467"><ele>591.0</ele><time>2026-05-02T14:51:15.258Z</time></trkpt><trkpt lat="45.67515" lon="8.18887"><ele>592.3333333333334</ele><time>2026-05-02T14:51:17.257Z</time></trkpt><trkpt lat="45.6752167" lon="8.1888417"><ele>593.6666666666666</ele><time>2026-05-02T14:51:21.256Z</time></trkpt><trkpt lat="45.6752067" lon="8.1887383"><ele>595.0</ele><time>2026-05-02T14:51:24.257Z</time></trkpt><trkpt lat="45.6752017" lon="8.18858"><ele>596.3333333333333</ele><time>2026-05-02T14:51:26.257Z</time></trkpt><trkpt lat="45.6751917" lon="8.1884267"><ele>597.6666666666666</ele><time>2026-05-02T14:51:28.259Z</time></trkpt><trkpt lat="45.6751533" lon="8.1883233"><ele>599.0</ele><time>2026-05-02T14:51:30.257Z</time></trkpt><trkpt lat="45.6750767" lon="8.1883383"><ele>599.0</ele><time>2026-05-02T14:51:33.256Z</time></trkpt><trkpt lat="45.6750467" lon="8.1884767"><ele>599.0</ele><time>2026-05-02T14:51:35.258Z</time></trkpt><trkpt lat="45.6750367" lon="8.1885967"><ele>599.0</ele><time>2026-05-02T14:51:37.257Z</time></trkpt><trkpt lat="45.6750133" lon="8.188725"><ele>599.0</ele><time>2026-05-02T14:51:39.26Z</time></trkpt><trkpt lat="45.6749917" lon="8.18886"><ele>599.0</ele><time>2026-05-02T14:51:41.26Z</time></trkpt><trkpt lat="45.67495" lon="8.1889683"><ele>597.6666666666666</ele><time>2026-05-02T14:51:43.26Z</time></trkpt><trkpt lat="45.6749217" lon="8.1891033"><ele>596.3333333333333</ele><time>2026-05-02T14:51:46.26Z</time></trkpt><trkpt lat="45.6749217" lon="8.1892317"><ele>595.0</ele><time>2026-05-02T14:51:49.256Z</time></trkpt><trkpt lat="45.674925" lon="8.1893283"><ele>593.6666666666666</ele><time>2026-05-02T14:51:50.257Z</time></trkpt><trkpt lat="45.674925" lon="8.18942"><ele>592.3333333333334</ele><time>2026-05-02T14:51:51.258Z</time></trkpt><trkpt lat="45.6748883" lon="8.1895683"><ele>591.0</ele><time>2026-05-02T14:51:53.258Z</time></trkpt><trkpt lat="45.6748883" lon="8.18966"><ele>591.0</ele><time>2026-05-02T14:51:54.256Z</time></trkpt><trkpt lat="45.6748967" lon="8.18983"><ele>591.0</ele><time>2026-05-02T14:51:56.256Z</time></trkpt><trkpt lat="45.6748317" lon="8.1898583"><ele>591.0</ele><time>2026-05-02T14:51:57.258Z</time></trkpt><trkpt lat="45.6748217" lon="8.1899567"><ele>591.0</ele><time>2026-05-02T14:51:58.257Z</time></trkpt><trkpt lat="45.6748283" lon="8.1900867"><ele>591.0</ele><time>2026-05-02T14:51:59.257Z</time></trkpt><trkpt lat="45.6748167" lon="8.190185"><ele>591.0</ele><time>2026-05-02T14:52:00.257Z</time></trkpt><trkpt lat="45.6748017" lon="8.190305"><ele>590.6</ele><time>2026-05-02T14:52:01.257Z</time></trkpt><trkpt lat="45.67477" lon="8.1904217"><ele>590.2</ele><time>2026-05-02T14:52:02.255Z</time></trkpt><trkpt lat="45.6747367" lon="8.190555"><ele>589.8</ele><time>2026-05-02T14:52:03.258Z</time></trkpt><trkpt lat="45.67472" lon="8.19071"><ele>589.4</ele><time>2026-05-02T14:52:04.257Z</time></trkpt><trkpt lat="45.6747" lon="8.1908383"><ele>589.0</ele><time>2026-05-02T14:52:05.257Z</time></trkpt><trkpt lat="45.6746917" lon="8.1909467"><ele>589.3333333333334</ele><time>2026-05-02T14:52:06.257Z</time></trkpt><trkpt lat="45.674685" lon="8.19104"><ele>589.6666666666667</ele><time>2026-05-02T14:52:07.257Z</time></trkpt><trkpt lat="45.674665" lon="8.1912367"><ele>590.0</ele><time>2026-05-02T14:52:09.257Z</time></trkpt><trkpt lat="45.6745767" lon="8.1912867"><ele>590.3333333333334</ele><time>2026-05-02T14:52:11.255Z</time></trkpt><trkpt lat="45.67451" lon="8.19128"><ele>590.6666666666666</ele><time>2026-05-02T14:52:12.255Z</time></trkpt><trkpt lat="45.674445" lon="8.1912817"><ele>591.0</ele><time>2026-05-02T14:52:13.257Z</time></trkpt><trkpt lat="45.6743417" lon="8.1913133"><ele>591.0</ele><time>2026-05-02T14:52:15.257Z</time></trkpt><trkpt lat="45.67426" lon="8.1913883"><ele>591.0</ele><time>2026-05-02T14:52:17.256Z</time></trkpt><trkpt lat="45.6741633" lon="8.1914733"><ele>591.0</ele><time>2026-05-02T14:52:19.256Z</time></trkpt><trkpt lat="45.6740833" lon="8.191545"><ele>591.0</ele><time>2026-05-02T14:52:21.258Z</time></trkpt><trkpt lat="45.6740283" lon="8.1916017"><ele>591.0</ele><time>2026-05-02T14:52:22.256Z</time></trkpt><trkpt lat="45.673975" lon="8.19166"><ele>591.0</ele><time>2026-05-02T14:52:23.256Z</time></trkpt><trkpt lat="45.6739033" lon="8.1917533"><ele>591.6</ele><time>2026-05-02T14:52:25.26Z</time></trkpt><trkpt lat="45.673835" lon="8.1918817"><ele>592.2</ele><time>2026-05-02T14:52:27.258Z</time></trkpt><trkpt lat="45.6737683" lon="8.1919433"><ele>592.8</ele><time>2026-05-02T14:52:28.255Z</time></trkpt><trkpt lat="45.6737167" lon="8.1920817"><ele>593.4</ele><time>2026-05-02T14:52:30.255Z</time></trkpt><trkpt lat="45.6737183" lon="8.1921867"><ele>594.0</ele><time>2026-05-02T14:52:32.256Z</time></trkpt><trkpt lat="45.67378" lon="8.1922467"><ele>594.0</ele><time>2026-05-02T14:52:34.257Z</time></trkpt><trkpt lat="45.6739283" lon="8.1923183"><ele>594.0</ele><time>2026-05-02T14:52:36.256Z</time></trkpt><trkpt lat="45.6740033" lon="8.19235"><ele>594.0</ele><time>2026-05-02T14:52:37.259Z</time></trkpt><trkpt lat="45.674075" lon="8.1924117"><ele>594.0</ele><time>2026-05-02T14:52:38.257Z</time></trkpt><trkpt lat="45.674145" lon="8.1924467"><ele>594.0</ele><time>2026-05-02T14:52:39.257Z</time></trkpt><trkpt lat="45.6742567" lon="8.1925367"><ele>591.4</ele><time>2026-05-02T14:52:41.255Z</time></trkpt><trkpt lat="45.674365" lon="8.192585"><ele>588.8</ele><time>2026-05-02T14:52:43.257Z</time></trkpt><trkpt lat="45.6744733" lon="8.1926783"><ele>586.2</ele><time>2026-05-02T14:52:45.257Z</time></trkpt><trkpt lat="45.6745133" lon="8.1928233"><ele>583.6</ele><time>2026-05-02T14:52:47.257Z</time></trkpt><trkpt lat="45.6745483" lon="8.1929267"><ele>581.0</ele><time>2026-05-02T14:52:49.256Z</time></trkpt><trkpt lat="45.674605" lon="8.192975"><ele>580.4</ele><time>2026-05-02T14:52:51.26Z</time></trkpt><trkpt lat="45.6746467" lon="8.1928917"><ele>579.8</ele><time>2026-05-02T14:52:53.257Z</time></trkpt><trkpt lat="45.6746967" lon="8.192705"><ele>579.1999999999999</ele><time>2026-05-02T14:52:55.258Z</time></trkpt><trkpt lat="45.674715" lon="8.19259"><ele>578.6</ele><time>2026-05-02T14:52:56.256Z</time></trkpt><trkpt lat="45.6747583" lon="8.19242"><ele>578.0</ele><time>2026-05-02T14:52:58.257Z</time></trkpt><trkpt lat="45.6748283" lon="8.192325"><ele>578.0</ele><time>2026-05-02T14:53:00.257Z</time></trkpt><trkpt lat="45.674945" lon="8.1924067"><ele>578.0</ele><time>2026-05-02T14:53:02.257Z</time></trkpt><trkpt lat="45.6750217" lon="8.1925133"><ele>578.0</ele><time>2026-05-02T14:53:03.256Z</time></trkpt><trkpt lat="45.675065" lon="8.1926267"><ele>578.0</ele><time>2026-05-02T14:53:04.256Z</time></trkpt><trkpt lat="45.67511" lon="8.1927267"><ele>578.0</ele><time>2026-05-02T14:53:05.256Z</time></trkpt><trkpt lat="45.67518" lon="8.1928383"><ele>578.0</ele><time>2026-05-02T14:53:07.257Z</time></trkpt><trkpt lat="45.67522" lon="8.192915"><ele>578.0</ele><time>2026-05-02T14:53:08.255Z</time></trkpt><trkpt lat="45.6752883" lon="8.1928767"><ele>578.0</ele><time>2026-05-02T14:53:12.258Z</time></trkpt><trkpt lat="45.6753167" lon="8.192725"><ele>578.0</ele><time>2026-05-02T14:53:14.258Z</time></trkpt><trkpt lat="45.675335" lon="8.192605"><ele>578.0</ele><time>2026-05-02T14:53:15.257Z</time></trkpt><trkpt lat="45.6753433" lon="8.1925083"><ele>578.0</ele><time>2026-05-02T14:53:16.255Z</time></trkpt><trkpt lat="45.675385" lon="8.1924133"><ele>578.6666666666666</ele><time>2026-05-02T14:53:17.256Z</time></trkpt><trkpt lat="45.67545" lon="8.1923267"><ele>579.3333333333333</ele><time>2026-05-02T14:53:18.254Z</time></trkpt><trkpt lat="45.675545" lon="8.1922367"><ele>580.0</ele><time>2026-05-02T14:53:19.255Z</time></trkpt><trkpt lat="45.675615" lon="8.1921617"><ele>580.6666666666666</ele><time>2026-05-02T14:53:20.256Z</time></trkpt><trkpt lat="45.675685" lon="8.1920933"><ele>581.3333333333334</ele><time>2026-05-02T14:53:21.257Z</time></trkpt><trkpt lat="45.6757417" lon="8.19204"><ele>582.0</ele><time>2026-05-02T14:53:22.256Z</time></trkpt><trkpt lat="45.6758017" lon="8.1920967"><ele>582.0</ele><time>2026-05-02T14:53:25.256Z</time></trkpt><trkpt lat="45.6757967" lon="8.1921883"><ele>582.0</ele><time>2026-05-02T14:53:28.257Z</time></trkpt><trkpt lat="45.67586" lon="8.1922083"><ele>582.0</ele><time>2026-05-02T14:53:30.258Z</time></trkpt><trkpt lat="45.675945" lon="8.1921917"><ele>582.0</ele><time>2026-05-02T14:53:32.255Z</time></trkpt><trkpt lat="45.6760467" lon="8.1921267"><ele>582.0</ele><time>2026-05-02T14:53:34.256Z</time></trkpt><trkpt lat="45.6761033" lon="8.1920383"><ele>582.0</ele><time>2026-05-02T14:53:36.256Z</time></trkpt><trkpt lat="45.6760917" lon="8.1919383"><ele>582.0</ele><time>2026-05-02T14:53:38.256Z</time></trkpt><trkpt lat="45.6760917" lon="8.1918333"><ele>582.0</ele><time>2026-05-02T14:53:40.257Z</time></trkpt><trkpt lat="45.6761267" lon="8.1917167"><ele>582.0</ele><time>2026-05-02T14:53:42.255Z</time></trkpt><trkpt lat="45.6761767" lon="8.1916333"><ele>582.0</ele><time>2026-05-02T14:53:44.256Z</time></trkpt><trkpt lat="45.67623" lon="8.19169"><ele>582.0</ele><time>2026-05-02T14:53:47.258Z</time></trkpt><trkpt lat="45.6763283" lon="8.191735"><ele>582.0</ele><time>2026-05-02T14:53:49.255Z</time></trkpt><trkpt lat="45.6763933" lon="8.1917683"><ele>579.5</ele><time>2026-05-02T14:53:51.257Z</time></trkpt><trkpt lat="45.6764183" lon="8.1916483"><ele>577.0</ele><time>2026-05-02T14:53:56.256Z</time></trkpt><trkpt lat="45.676435" lon="8.191535"><ele>574.5</ele><time>2026-05-02T14:53:58.257Z</time></trkpt><trkpt lat="45.6764017" lon="8.1914483"><ele>572.0</ele><time>2026-05-02T14:54:01.256Z</time></trkpt><trkpt lat="45.6763183" lon="8.1914267"><ele>569.5</ele><time>2026-05-02T14:54:03.257Z</time></trkpt><trkpt lat="45.6762883" lon="8.1913167"><ele>567.0</ele><time>2026-05-02T14:54:08.255Z</time></trkpt><trkpt lat="45.6761667" lon="8.1913233"><ele>560.0</ele><time>2026-05-02T14:54:13.255Z</time></trkpt><trkpt lat="45.6760967" lon="8.1913583"><ele>576.0</ele><time>2026-05-02T14:54:14.255Z</time></trkpt><trkpt lat="45.675985" lon="8.1914"><ele>576.0</ele><time>2026-05-02T14:54:16.255Z</time></trkpt><trkpt lat="45.6758783" lon="8.1914117"><ele>576.0</ele><time>2026-05-02T14:54:18.255Z</time></trkpt><trkpt lat="45.6758117" lon="8.1914333"><ele>576.0</ele><time>2026-05-02T14:54:20.257Z</time></trkpt></trkseg></trk></gpx>